createdAt,value
2023-05-05T00:01:03.404Z,7.90
2023-05-05T00:03:33.596Z,8.20
2023-05-05T00:06:01.798Z,8.20
2023-05-05T00:08:30.292Z,8.10
2023-05-05T00:10:58.451Z,7.70
2023-05-05T00:13:26.827Z,8.60
2023-05-05T00:15:55.416Z,7.80
2023-05-05T00:18:23.615Z,7.80
2023-05-05T00:20:51.853Z,8.30
2023-05-05T00:23:20.651Z,7.80
2023-05-05T00:25:48.814Z,8.50
2023-05-05T00:28:17.411Z,8.10
2023-05-05T00:30:45.672Z,7.90
2023-05-05T00:33:13.862Z,8.30
2023-05-05T00:35:42.545Z,7.80
2023-05-05T00:38:10.712Z,7.90
2023-05-05T00:40:38.983Z,8.10
2023-05-05T00:43:07.869Z,7.90
2023-05-05T00:45:37.573Z,7.80
2023-05-05T00:48:06.404Z,6.90
2023-05-05T00:50:35.356Z,7.20
2023-05-05T00:53:06.114Z,7.70
2023-05-05T00:55:35.609Z,7.80
2023-05-05T00:58:06.837Z,7.80
2023-05-05T01:00:35.315Z,8.70
2023-05-05T01:03:03.635Z,8.20
2023-05-05T01:05:50.397Z,7.80
2023-05-05T01:08:40.795Z,7.80
2023-05-05T01:11:31.798Z,7.80
2023-05-05T01:14:19.628Z,8.70
2023-05-05T01:16:59.579Z,7.60
2023-05-05T01:20:12.499Z,8.40
2023-05-05T01:22:47.717Z,8.10
2023-05-05T01:25:37.312Z,9.10
2023-05-05T01:28:50.954Z,7.80
2023-05-05T01:31:37.502Z,8.60
2023-05-05T01:34:09.208Z,8.40
2023-05-05T01:36:40.141Z,7.60
2023-05-05T01:39:11.490Z,9.20
2023-05-05T01:41:48.461Z,8.90
2023-05-05T01:44:19.180Z,8.70
2023-05-05T01:46:49.110Z,9.80
2023-05-05T01:49:17.325Z,9.20
2023-05-05T01:51:46.713Z,9.20
2023-05-05T01:54:15.670Z,9.20
2023-05-05T01:56:43.952Z,8.90
2023-05-05T01:59:13.146Z,8.90
2023-05-05T02:01:44.890Z,8.80
2023-05-05T02:04:14.627Z,9.10
2023-05-05T02:06:44.114Z,8.80
2023-05-05T02:09:13.416Z,9.60
2023-05-05T02:11:41.789Z,9.50
2023-05-05T02:14:10.988Z,9.20
2023-05-05T02:16:41.434Z,9.00
2023-05-05T02:19:10.215Z,9.20
2023-05-05T02:21:38.479Z,9.70
2023-05-05T02:24:08.600Z,9.80
2023-05-05T02:26:40.154Z,10.00
2023-05-05T02:29:12.176Z,9.90
2023-05-05T02:31:45.217Z,10.10
2023-05-05T02:34:16.856Z,9.40
2023-05-05T02:36:45.327Z,9.60
2023-05-05T02:39:32.136Z,9.30
2023-05-05T02:42:03.567Z,9.00
2023-05-05T02:44:33.304Z,11.50
2023-05-05T02:47:03.996Z,9.60
2023-05-05T02:49:33.220Z,9.80
2023-05-05T02:52:01.803Z,9.20
2023-05-05T02:54:33.976Z,9.50
2023-05-05T02:59:51.205Z,9.20
2023-05-05T03:02:27.445Z,9.00
2023-05-05T03:05:15.811Z,9.40
2023-05-05T03:07:51.866Z,9.70
2023-05-05T03:10:22.195Z,9.90
2023-05-05T03:12:58.170Z,10.10
2023-05-05T03:15:36.961Z,10.10
2023-05-05T03:18:06.680Z,9.30
2023-05-05T03:20:35.562Z,9.40
2023-05-05T03:23:08.034Z,10.10
2023-05-05T03:25:43.657Z,9.80
2023-05-05T03:28:12.775Z,9.40
2023-05-05T03:30:42.176Z,9.60
2023-05-05T03:33:11.683Z,9.50
2023-05-05T03:35:40.673Z,10.10
2023-05-05T03:38:10.175Z,9.40
2023-05-05T03:40:44.134Z,8.90
2023-05-05T03:43:13.597Z,10.10
2023-05-05T03:45:41.821Z,8.60
2023-05-05T03:48:10.231Z,9.60
2023-05-05T03:50:39.640Z,8.60
2023-05-05T03:53:08.221Z,8.40
2023-05-05T03:55:36.390Z,7.90
2023-05-05T03:58:04.568Z,8.80
2023-05-05T04:00:33.563Z,9.30
2023-05-05T04:03:02.236Z,8.30
2023-05-05T04:05:30.827Z,8.80
2023-05-05T04:07:59.118Z,9.00
2023-05-05T04:10:27.581Z,8.30
2023-05-05T04:12:55.794Z,8.90
2023-05-05T04:15:24.229Z,9.60
2023-05-05T04:17:52.533Z,9.90
2023-05-05T04:20:20.783Z,9.20
2023-05-05T04:22:50.195Z,9.20
2023-05-05T04:25:20.097Z,8.80
2023-05-05T04:27:48.888Z,9.40
2023-05-05T04:30:17.485Z,9.00
2023-05-05T04:32:47.197Z,9.30
2023-05-05T04:35:15.856Z,8.20
2023-05-05T04:37:44.336Z,9.70
2023-05-05T04:40:13.331Z,10.80
2023-05-05T04:42:41.804Z,11.40
2023-05-05T04:45:11.208Z,12.50
2023-05-05T04:47:40.650Z,13.00
2023-05-05T04:50:09.934Z,13.00
2023-05-05T04:52:38.293Z,12.30
2023-05-05T04:55:07.240Z,13.50
2023-05-05T04:57:35.661Z,13.70
2023-05-05T05:00:05.589Z,13.10
2023-05-05T05:02:34.030Z,13.50
2023-05-05T05:05:02.836Z,11.50
2023-05-05T05:07:31.212Z,12.60
2023-05-05T05:09:59.599Z,12.60
2023-05-05T05:12:27.726Z,12.70
2023-05-05T05:14:56.133Z,13.40
2023-05-05T05:17:25.114Z,13.70
2023-05-05T05:19:55.341Z,13.90
2023-05-05T05:33:06.988Z,12.30
2023-05-05T05:35:36.026Z,12.40
2023-05-05T05:38:05.322Z,12.90
2023-05-05T05:40:33.609Z,12.70
2023-05-05T05:43:03.131Z,13.40
2023-05-05T05:45:31.781Z,13.10
2023-05-05T05:47:59.927Z,13.80
2023-05-05T05:50:28.859Z,14.00
2023-05-05T05:52:57.561Z,14.30
2023-05-05T05:55:26.212Z,13.70
2023-05-05T05:57:55.006Z,13.70
2023-05-05T06:00:23.483Z,13.90
2023-05-05T06:02:56.355Z,14.20
2023-05-05T06:05:27.098Z,13.70
2023-05-05T06:07:55.878Z,11.80
2023-05-05T06:10:30.324Z,13.00
2023-05-05T06:13:02.828Z,13.10
2023-05-05T06:15:31.666Z,12.80
2023-05-05T06:18:00.794Z,12.50
2023-05-05T06:20:29.154Z,12.70
2023-05-05T06:22:57.712Z,13.80
2023-05-05T06:25:27.013Z,12.70
2023-05-05T06:27:55.388Z,13.40
2023-05-05T06:30:23.562Z,13.80
2023-05-05T06:32:52.277Z,12.80
2023-05-05T06:35:21.028Z,12.10
2023-05-05T06:37:49.107Z,12.90
2023-05-05T06:40:17.482Z,12.90
2023-05-05T06:42:45.856Z,14.00
2023-05-05T06:45:17.716Z,13.10
2023-05-05T06:47:46.119Z,12.40
2023-05-05T06:50:14.269Z,13.00
2023-05-05T06:52:42.758Z,12.10
2023-05-05T06:55:10.918Z,13.00
2023-05-05T06:57:39.095Z,12.50
2023-05-05T07:00:11.524Z,11.90
2023-05-05T07:02:40.238Z,12.60
2023-05-05T07:05:08.936Z,12.10
2023-05-05T07:07:38.456Z,11.60
2023-05-05T07:10:07.913Z,12.50
2023-05-05T07:12:36.252Z,11.20
2023-05-05T07:15:15.505Z,12.00
2023-05-05T07:17:47.641Z,11.90
2023-05-05T07:20:16.401Z,11.60
2023-05-05T07:22:44.572Z,11.60
2023-05-05T07:25:12.749Z,11.40
2023-05-05T07:27:41.119Z,11.10
2023-05-05T07:30:12.585Z,10.70
2023-05-05T07:32:41.630Z,11.20
2023-05-05T07:35:10.130Z,10.70
2023-05-05T07:37:38.316Z,11.60
2023-05-05T07:40:07.591Z,11.10
2023-05-05T07:42:36.116Z,11.10
2023-05-05T07:45:05.380Z,9.50
2023-05-05T07:47:33.632Z,10.20
2023-05-05T07:50:02.256Z,10.10
2023-05-05T07:52:44.999Z,10.90
2023-05-05T07:55:16.614Z,10.40
2023-05-05T07:57:44.789Z,10.80
2023-05-05T08:00:13.791Z,10.40
2023-05-05T08:02:42.035Z,9.20
2023-05-05T08:05:11.480Z,10.00
2023-05-05T08:07:41.746Z,9.30
2023-05-05T08:12:41.333Z,9.90
2023-05-05T08:15:10.412Z,10.20
2023-05-05T08:17:49.664Z,10.80
2023-05-05T08:20:19.720Z,10.50
2023-05-05T08:22:48.453Z,9.40
2023-05-05T08:25:16.598Z,9.30
2023-05-05T08:27:44.885Z,9.70
2023-05-05T08:30:13.528Z,10.20
2023-05-05T08:32:41.881Z,9.90
2023-05-05T08:35:10.760Z,9.40
2023-05-05T08:37:39.208Z,9.60
2023-05-05T08:40:08.085Z,9.90
2023-05-05T08:42:38.558Z,10.20
2023-05-05T08:45:09.017Z,10.30
2023-05-05T08:47:38.182Z,10.30
2023-05-05T08:50:07.821Z,9.30
2023-05-05T08:52:42.056Z,10.00
2023-05-05T08:55:24.500Z,10.40
2023-05-05T08:57:56.089Z,9.70
2023-05-05T09:00:26.673Z,9.20
2023-05-05T09:02:57.841Z,8.50
2023-05-05T09:05:26.903Z,9.70
2023-05-05T09:07:55.456Z,9.90
2023-05-05T09:10:25.268Z,8.70
2023-05-05T09:12:53.511Z,7.90
2023-05-05T09:15:21.745Z,7.80
2023-05-05T09:17:50.028Z,7.70
2023-05-05T09:20:18.376Z,6.50
2023-05-05T09:22:47.766Z,8.00
2023-05-05T09:25:17.745Z,7.50
2023-05-05T09:30:23.760Z,7.80
2023-05-05T09:32:55.896Z,7.30
2023-05-05T09:35:24.196Z,7.30
2023-05-05T09:37:52.379Z,6.90
2023-05-05T09:40:21.549Z,6.80
2023-05-05T09:43:01.326Z,7.10
2023-05-05T09:45:29.903Z,7.50
2023-05-05T09:48:00.268Z,7.20
2023-05-05T09:50:30.964Z,7.20
2023-05-05T09:53:03.757Z,6.80
2023-05-05T09:55:32.167Z,7.30
2023-05-05T09:58:26.456Z,6.80
2023-05-05T10:00:56.201Z,6.50
2023-05-05T10:05:57.759Z,6.40
2023-05-05T10:08:28.285Z,6.20
2023-05-05T10:11:07.232Z,6.40
2023-05-05T10:13:41.200Z,5.90
2023-05-05T10:16:09.955Z,6.40
2023-05-05T10:18:40.478Z,5.90
2023-05-05T10:21:09.421Z,6.50
2023-05-05T10:23:55.924Z,6.10
2023-05-05T10:26:26.456Z,5.90
2023-05-05T10:29:01.788Z,6.40
2023-05-05T10:31:37.788Z,5.30
2023-05-05T10:34:10.463Z,5.30
2023-05-05T10:36:39.728Z,5.40
2023-05-05T10:39:09.540Z,4.90
2023-05-05T10:41:38.242Z,5.20
2023-05-05T10:44:07.110Z,4.80
2023-05-05T10:46:35.373Z,4.20
2023-05-05T10:49:03.561Z,4.70
2023-05-05T10:51:48.452Z,4.20
2023-05-05T10:54:31.075Z,4.10
2023-05-05T10:57:02.789Z,3.90
2023-05-05T10:59:37.091Z,3.70
2023-05-05T11:02:25.684Z,3.00
2023-05-05T11:05:15.408Z,3.40
2023-05-05T11:10:15.195Z,3.30
2023-05-05T11:13:06.995Z,3.30
2023-05-05T11:15:37.959Z,2.80
2023-05-05T11:18:08.210Z,3.30
2023-05-05T11:20:40.203Z,2.90
2023-05-05T11:23:08.278Z,2.60
2023-05-05T11:25:37.080Z,3.00
2023-05-05T11:28:16.534Z,2.90
2023-05-05T11:31:04.761Z,2.70
2023-05-05T11:33:34.145Z,2.50
2023-05-05T11:36:07.328Z,2.50
2023-05-05T11:38:42.365Z,2.40
2023-05-05T11:41:10.449Z,2.70
2023-05-05T11:43:39.325Z,2.70
2023-05-05T11:46:15.263Z,2.40
2023-05-05T11:48:52.936Z,2.60
2023-05-05T11:51:22.393Z,2.20
2023-05-05T11:53:51.067Z,2.00
2023-05-05T11:56:20.685Z,2.10
2023-05-05T11:58:50.040Z,1.90
2023-05-05T12:01:18.337Z,2.10
2023-05-05T12:03:46.754Z,2.30
2023-05-05T12:06:15.091Z,2.30
2023-05-05T12:08:43.263Z,1.90
2023-05-05T12:11:11.849Z,2.10
2023-05-05T12:13:40.028Z,2.20
2023-05-05T12:16:15.457Z,2.00
2023-05-05T12:18:43.586Z,2.00
2023-05-05T12:21:18.524Z,1.60
2023-05-05T12:23:47.054Z,1.80
2023-05-05T12:26:32.126Z,1.30
2023-05-05T12:29:01.016Z,1.50
2023-05-05T12:31:36.475Z,1.40
2023-05-05T12:34:06.471Z,2.00
2023-05-05T12:36:35.151Z,2.00
2023-05-05T12:39:05.442Z,1.40
2023-05-05T12:41:34.326Z,1.60
2023-05-05T12:44:05.404Z,1.80
2023-05-05T12:46:45.784Z,2.10
2023-05-05T12:49:14.337Z,1.60
2023-05-05T12:51:56.439Z,1.70
2023-05-05T12:54:25.362Z,1.80
2023-05-05T12:56:53.502Z,1.80
2023-05-05T12:59:21.675Z,1.70
2023-05-05T13:01:51.050Z,1.60
2023-05-05T13:04:21.511Z,1.70
2023-05-05T13:06:56.643Z,1.50
2023-05-05T13:09:26.643Z,1.60
2023-05-05T13:11:55.132Z,3.00
2023-05-05T13:14:23.821Z,1.50
2023-05-05T13:16:53.214Z,2.10
2023-05-05T13:19:21.389Z,1.60
2023-05-05T13:21:49.681Z,1.50
2023-05-05T13:26:49.691Z,1.90
2023-05-05T13:31:46.425Z,1.80
2023-05-05T13:34:14.732Z,1.80
2023-05-05T13:36:42.792Z,1.60
2023-05-05T13:39:11.502Z,2.20
2023-05-05T13:41:39.859Z,2.50
2023-05-05T13:44:08.033Z,3.80
2023-05-05T13:46:36.335Z,3.30
2023-05-05T13:49:04.569Z,3.10
2023-05-05T13:51:35.135Z,3.70
2023-05-05T13:54:03.383Z,3.20
2023-05-05T13:56:31.755Z,4.10
2023-05-05T13:59:00.036Z,3.40
2023-05-05T14:01:28.482Z,3.80
2023-05-05T14:03:57.746Z,3.40
2023-05-05T14:06:26.535Z,3.40
2023-05-05T14:08:54.762Z,4.00
2023-05-05T14:11:23.022Z,3.90
2023-05-05T14:13:52.113Z,3.80
2023-05-05T14:16:20.381Z,4.50
2023-05-05T14:18:48.584Z,4.30
2023-05-05T14:21:16.963Z,3.60
2023-05-05T14:23:45.552Z,4.20
2023-05-05T14:26:13.712Z,4.60
2023-05-05T14:28:42.599Z,4.20
2023-05-05T14:31:11.400Z,4.80
2023-05-05T14:33:39.560Z,4.30
2023-05-05T14:36:08.353Z,4.30
2023-05-05T14:38:36.655Z,4.00
2023-05-05T14:41:05.298Z,4.10
2023-05-05T14:43:33.397Z,3.80
2023-05-05T14:46:06.828Z,4.10
2023-05-05T14:48:35.660Z,4.00
2023-05-05T14:51:04.849Z,4.40
2023-05-05T14:53:33.232Z,5.20
2023-05-05T14:56:02.711Z,4.30
2023-05-05T14:58:31.254Z,4.70
2023-05-05T15:01:00.724Z,6.40
2023-05-05T15:03:28.973Z,4.60
2023-05-05T15:05:57.368Z,4.20
2023-05-05T15:08:25.650Z,3.80
2023-05-05T15:10:53.920Z,4.50
2023-05-05T15:13:22.186Z,4.40
2023-05-05T15:15:51.484Z,5.20
2023-05-05T15:20:47.749Z,4.60
2023-05-05T15:23:16.315Z,4.90
2023-05-05T15:25:44.489Z,4.30
2023-05-05T15:28:12.663Z,4.10
2023-05-05T15:30:40.827Z,4.90
2023-05-05T15:33:08.894Z,5.30
2023-05-05T15:35:37.070Z,4.80
2023-05-05T15:38:05.138Z,4.60
2023-05-05T15:40:33.316Z,4.20
2023-05-05T15:43:01.691Z,4.00
2023-05-05T15:45:29.860Z,4.60
2023-05-05T15:47:58.068Z,4.30
2023-05-05T15:50:26.206Z,4.70
2023-05-05T15:52:57.114Z,4.70
2023-05-05T15:55:26.039Z,4.30
2023-05-05T15:57:54.631Z,4.60
2023-05-05T16:00:22.802Z,4.40
2023-05-05T16:02:51.015Z,4.50
2023-05-05T16:05:21.353Z,4.60
2023-05-05T16:07:52.112Z,4.70
2023-05-05T16:10:20.595Z,4.60
2023-05-05T16:12:48.975Z,4.10
2023-05-05T16:15:17.160Z,4.70
2023-05-05T16:17:45.268Z,4.10
2023-05-05T16:20:14.176Z,4.30
2023-05-05T16:22:42.484Z,10.00
2023-05-05T16:25:11.353Z,7.90
2023-05-05T16:27:39.645Z,4.70
2023-05-05T16:30:09.060Z,8.30
2023-05-05T16:32:37.123Z,4.70
2023-05-05T16:35:07.442Z,4.90
2023-05-05T16:37:35.925Z,5.20
2023-05-05T16:40:05.631Z,4.60
2023-05-05T16:42:33.724Z,4.50
2023-05-05T16:45:02.068Z,4.80
2023-05-05T16:47:30.301Z,4.80
2023-05-05T16:49:58.624Z,4.70
2023-05-05T16:52:26.903Z,4.90
2023-05-05T16:54:56.819Z,5.20
2023-05-05T16:59:55.812Z,4.90
2023-05-05T17:02:23.936Z,4.90
2023-05-05T17:04:52.873Z,5.10
2023-05-05T17:07:21.560Z,4.50
2023-05-05T17:09:49.614Z,4.60
2023-05-05T17:12:17.917Z,5.20
2023-05-05T17:14:46.206Z,4.70
2023-05-05T17:17:14.561Z,4.60
2023-05-05T17:19:42.947Z,4.50
2023-05-05T17:22:11.104Z,4.50
2023-05-05T17:24:39.177Z,4.40
2023-05-05T17:27:07.376Z,4.60
2023-05-05T17:29:40.868Z,4.00
2023-05-05T17:32:09.413Z,4.90
2023-05-05T17:34:37.907Z,4.60
2023-05-05T17:37:06.078Z,4.10
2023-05-05T17:39:34.712Z,3.90
2023-05-05T17:42:03.065Z,4.20
2023-05-05T17:44:32.749Z,4.10
2023-05-05T17:47:02.861Z,3.60
2023-05-05T17:49:31.344Z,4.10
2023-05-05T17:51:59.547Z,4.00
2023-05-05T17:54:27.689Z,3.60
2023-05-05T17:56:55.772Z,4.70
2023-05-05T17:59:23.835Z,4.20
2023-05-05T18:01:52.006Z,4.20
2023-05-05T18:04:20.080Z,3.70
2023-05-05T18:06:48.466Z,4.10
2023-05-05T18:09:17.445Z,4.30
2023-05-05T18:11:45.717Z,4.70
2023-05-05T18:14:13.806Z,4.20
2023-05-05T18:16:47.766Z,4.90
2023-05-05T18:19:16.994Z,4.40
2023-05-05T18:21:45.165Z,4.60
2023-05-05T18:24:20.000Z,4.40
2023-05-05T18:26:50.723Z,4.20
2023-05-05T18:29:20.234Z,3.90
2023-05-05T18:31:53.132Z,4.30
2023-05-05T18:34:21.521Z,4.90
2023-05-05T18:36:51.381Z,5.30
2023-05-05T18:39:20.435Z,4.20
2023-05-05T18:41:48.570Z,4.70
2023-05-05T18:44:16.733Z,4.70
2023-05-05T18:46:47.057Z,4.30
2023-05-05T18:49:15.644Z,5.10
2023-05-05T18:51:44.233Z,5.70
2023-05-05T18:54:12.395Z,4.50
2023-05-05T18:56:40.876Z,4.80
2023-05-05T18:59:08.952Z,4.90
2023-05-05T19:01:37.145Z,5.00
2023-05-05T19:06:53.637Z,5.20
2023-05-05T19:09:22.012Z,5.00
2023-05-05T19:11:50.083Z,5.10
2023-05-05T19:14:18.254Z,5.40
2023-05-05T19:16:46.456Z,5.10
2023-05-05T19:19:14.702Z,5.40
2023-05-05T19:21:42.874Z,4.80
2023-05-05T19:24:11.797Z,5.60
2023-05-05T19:26:40.058Z,5.30
2023-05-05T19:29:08.307Z,5.00
2023-05-05T19:31:36.834Z,5.20
2023-05-05T19:34:05.474Z,4.90
2023-05-05T19:36:34.788Z,5.80
2023-05-05T19:39:04.179Z,5.50
2023-05-05T19:41:32.862Z,5.50
2023-05-05T19:44:01.028Z,5.80
2023-05-05T19:46:29.330Z,5.50
2023-05-05T19:48:57.577Z,5.00
2023-05-05T19:51:26.362Z,5.60
2023-05-05T19:53:54.433Z,5.50
2023-05-05T19:56:23.321Z,4.80
2023-05-05T19:59:06.474Z,5.50
2023-05-05T20:01:35.436Z,5.50
2023-05-05T20:04:03.981Z,5.20
2023-05-05T20:06:33.124Z,5.70
2023-05-05T20:09:02.105Z,5.20
2023-05-05T20:11:30.579Z,5.40
2023-05-05T20:13:59.174Z,6.00
2023-05-05T20:16:27.475Z,5.30
2023-05-05T20:18:56.003Z,5.50
2023-05-05T20:21:24.089Z,5.30
2023-05-05T20:23:54.665Z,5.10
2023-05-05T20:26:24.600Z,5.80
2023-05-05T20:28:53.034Z,5.10
2023-05-05T20:31:21.368Z,5.30
2023-05-05T20:33:49.682Z,5.70
2023-05-05T20:36:18.255Z,5.00
2023-05-05T20:38:46.421Z,5.50
2023-05-05T20:41:14.597Z,5.20
2023-05-05T20:43:42.871Z,5.30
2023-05-05T20:46:13.893Z,5.50
2023-05-05T20:48:42.942Z,5.60
2023-05-05T20:51:11.508Z,5.70
2023-05-05T20:53:39.683Z,5.40
2023-05-05T20:56:08.789Z,5.10
2023-05-05T20:58:37.348Z,6.10
2023-05-05T21:01:05.551Z,5.50
2023-05-05T21:03:33.781Z,5.60
2023-05-05T21:06:02.156Z,5.10
2023-05-05T21:08:30.840Z,5.50
2023-05-05T21:10:58.907Z,4.70
2023-05-05T21:13:28.100Z,5.60
2023-05-05T21:15:56.278Z,5.70
2023-05-05T21:18:26.083Z,5.70
2023-05-05T21:20:54.365Z,5.10
2023-05-05T21:23:22.527Z,5.10
2023-05-05T21:25:50.805Z,6.20
2023-05-05T21:28:18.977Z,5.40
2023-05-05T21:30:59.411Z,5.20
2023-05-05T21:33:35.395Z,5.30
2023-05-05T21:36:04.059Z,5.20
2023-05-05T21:38:32.147Z,5.90
2023-05-05T21:41:00.529Z,5.40
2023-05-05T21:43:29.006Z,5.70
2023-05-05T21:46:01.024Z,6.30
2023-05-05T21:48:29.459Z,5.60
2023-05-05T21:50:57.824Z,5.90
2023-05-05T21:53:25.998Z,5.50
2023-05-05T21:55:54.177Z,5.60
2023-05-05T21:58:25.046Z,6.00
2023-05-05T22:00:53.381Z,6.40
2023-05-05T22:03:21.718Z,5.10
2023-05-05T22:05:49.828Z,5.50
2023-05-05T22:08:19.231Z,5.40
2023-05-05T22:10:47.812Z,6.00
2023-05-05T22:13:16.168Z,5.30
2023-05-05T22:15:47.176Z,5.50
2023-05-05T22:18:16.117Z,5.40
2023-05-05T22:20:44.387Z,5.90
2023-05-05T22:23:14.166Z,5.20
2023-05-05T22:25:42.379Z,5.50
2023-05-05T22:28:11.673Z,5.10
2023-05-05T22:30:39.842Z,5.60
2023-05-05T22:33:08.197Z,4.90
2023-05-05T22:35:37.824Z,5.30
2023-05-05T22:38:06.720Z,5.30
2023-05-05T22:40:36.013Z,5.30
2023-05-05T22:43:04.199Z,5.70
2023-05-05T22:45:33.174Z,4.60
2023-05-05T22:48:01.411Z,4.60
2023-05-05T22:50:29.627Z,4.80
2023-05-05T22:52:57.697Z,4.80
2023-05-05T22:55:26.172Z,5.00
2023-05-05T22:57:54.452Z,4.70
2023-05-05T23:00:22.930Z,5.00
2023-05-05T23:02:51.136Z,5.60
2023-05-05T23:05:19.375Z,5.40
2023-05-05T23:07:47.557Z,4.50
2023-05-05T23:10:15.823Z,5.00
2023-05-05T23:12:44.026Z,4.80
2023-05-05T23:15:12.405Z,5.30
2023-05-05T23:17:40.864Z,4.70
2023-05-05T23:20:12.093Z,5.10
2023-05-05T23:22:40.176Z,4.70
2023-05-05T23:25:09.257Z,5.40
2023-05-05T23:27:39.627Z,4.40
2023-05-05T23:30:09.139Z,5.30
2023-05-05T23:32:37.670Z,4.70
2023-05-05T23:35:06.815Z,4.70
2023-05-05T23:37:35.041Z,4.60
2023-05-05T23:40:03.411Z,5.30
2023-05-05T23:42:31.587Z,4.70
2023-05-05T23:44:59.763Z,4.60
2023-05-05T23:47:27.846Z,5.20
2023-05-05T23:49:56.104Z,5.20
2023-05-05T23:52:24.400Z,5.00
2023-05-05T23:54:52.558Z,4.80
2023-05-05T23:57:20.921Z,5.30
2023-05-05T23:59:49.095Z,4.60
